sensor_id;sensor_type;location;lat;lon;timestamp;temperature;humidity
16198;DHT22;8206;51.440;6.914;2022-07-10T00:00:32;13.50;99.90
16198;DHT22;8206;51.440;6.914;2022-07-10T00:03:02;13.60;99.90
16198;DHT22;8206;51.440;6.914;2022-07-10T00:05:29;13.60;99.90
16198;DHT22;8206;51.440;6.914;2022-07-10T00:07:56;13.60;99.90
16198;DHT22;8206;51.440;6.914;2022-07-10T00:10:23;13.60;99.90
16198;DHT22;8206;51.440;6.914;2022-07-10T00:12:51;13.60;99.90
16198;DHT22;8206;51.440;6.914;2022-07-10T00:15:18;13.50;99.90
16198;DHT22;8206;51.440;6.914;2022-07-10T00:17:46;13.60;99.90
16198;DHT22;8206;51.440;6.914;2022-07-10T00:20:14;13.60;99.90
16198;DHT22;8206;51.440;6.914;2022-07-10T00:22:41;13.60;99.90
16198;DHT22;8206;51.440;6.914;2022-07-10T00:25:10;13.70;99.90
16198;DHT22;8206;51.440;6.914;2022-07-10T00:27:38;13.80;99.90
16198;DHT22;8206;51.440;6.914;2022-07-10T00:30:08;13.90;99.90
16198;DHT22;8206;51.440;6.914;2022-07-10T00:32:35;13.90;99.90
16198;DHT22;8206;51.440;6.914;2022-07-10T00:35:03;14.00;99.90
16198;DHT22;8206;51.440;6.914;2022-07-10T00:37:31;14.00;99.90
16198;DHT22;8206;51.440;6.914;2022-07-10T00:39:58;14.10;99.90
16198;DHT22;8206;51.440;6.914;2022-07-10T00:42:25;14.10;99.90
16198;DHT22;8206;51.440;6.914;2022-07-10T00:44:52;14.20;99.90
16198;DHT22;8206;51.440;6.914;2022-07-10T00:47:19;14.10;99.90
16198;DHT22;8206;51.440;6.914;2022-07-10T00:49:46;14.20;99.90
16198;DHT22;8206;51.440;6.914;2022-07-10T00:52:15;14.20;99.90
16198;DHT22;8206;51.440;6.914;2022-07-10T00:54:45;14.20;99.90
16198;DHT22;8206;51.440;6.914;2022-07-10T00:57:13;14.20;99.90
16198;DHT22;8206;51.440;6.914;2022-07-10T00:59:41;14.20;99.90
16198;DHT22;8206;51.440;6.914;2022-07-10T01:02:08;14.20;99.90
16198;DHT22;8206;51.440;6.914;2022-07-10T01:04:35;14.30;99.90
16198;DHT22;8206;51.440;6.914;2022-07-10T01:07:03;14.30;99.90
16198;DHT22;8206;51.440;6.914;2022-07-10T01:09:30;14.30;99.90
16198;DHT22;8206;51.440;6.914;2022-07-10T01:11:59;14.30;99.90
16198;DHT22;8206;51.440;6.914;2022-07-10T01:14:27;14.30;99.90
16198;DHT22;8206;51.440;6.914;2022-07-10T01:16:54;14.30;99.90
16198;DHT22;8206;51.440;6.914;2022-07-10T01:19:21;14.30;99.90
16198;DHT22;8206;51.440;6.914;2022-07-10T01:21:49;14.20;99.90
16198;DHT22;8206;51.440;6.914;2022-07-10T01:24:16;14.30;99.90
16198;DHT22;8206;51.440;6.914;2022-07-10T01:26:43;14.20;99.90
16198;DHT22;8206;51.440;6.914;2022-07-10T01:29:11;14.20;99.90
16198;DHT22;8206;51.440;6.914;2022-07-10T01:31:37;14.20;99.90
16198;DHT22;8206;51.440;6.914;2022-07-10T01:34:07;14.30;99.90
16198;DHT22;8206;51.440;6.914;2022-07-10T01:36:35;14.20;99.90
16198;DHT22;8206;51.440;6.914;2022-07-10T01:39:04;14.30;99.90
16198;DHT22;8206;51.440;6.914;2022-07-10T01:41:31;14.40;99.90
16198;DHT22;8206;51.440;6.914;2022-07-10T01:43:57;14.30;99.90
16198;DHT22;8206;51.440;6.914;2022-07-10T01:46:25;14.40;99.90
16198;DHT22;8206;51.440;6.914;2022-07-10T01:48:52;14.40;99.90
16198;DHT22;8206;51.440;6.914;2022-07-10T01:51:19;14.30;99.90
16198;DHT22;8206;51.440;6.914;2022-07-10T01:53:46;14.30;99.90
16198;DHT22;8206;51.440;6.914;2022-07-10T01:56:15;14.30;99.90
16198;DHT22;8206;51.440;6.914;2022-07-10T01:58:42;14.30;99.90
16198;DHT22;8206;51.440;6.914;2022-07-10T02:01:10;14.30;99.90
16198;DHT22;8206;51.440;6.914;2022-07-10T02:03:37;14.30;99.90
16198;DHT22;8206;51.440;6.914;2022-07-10T02:06:21;14.30;99.90
16198;DHT22;8206;51.440;6.914;2022-07-10T02:08:48;14.30;99.90
16198;DHT22;8206;51.440;6.914;2022-07-10T02:11:16;14.30;99.90
16198;DHT22;8206;51.440;6.914;2022-07-10T02:13:42;14.20;99.90
16198;DHT22;8206;51.440;6.914;2022-07-10T02:16:09;14.10;99.90
16198;DHT22;8206;51.440;6.914;2022-07-10T02:18:37;14.10;99.90
16198;DHT22;8206;51.440;6.914;2022-07-10T02:21:04;14.00;99.90
16198;DHT22;8206;51.440;6.914;2022-07-10T02:23:32;13.90;99.90
16198;DHT22;8206;51.440;6.914;2022-07-10T02:25:59;13.90;99.90
16198;DHT22;8206;51.440;6.914;2022-07-10T02:28:27;13.70;99.90
16198;DHT22;8206;51.440;6.914;2022-07-10T02:30:54;13.70;99.90
16198;DHT22;8206;51.440;6.914;2022-07-10T02:33:20;13.60;99.90
16198;DHT22;8206;51.440;6.914;2022-07-10T02:35:47;13.60;99.90
16198;DHT22;8206;51.440;6.914;2022-07-10T02:38:14;13.60;99.90
16198;DHT22;8206;51.440;6.914;2022-07-10T02:40:41;13.70;99.90
16198;DHT22;8206;51.440;6.914;2022-07-10T02:43:08;13.70;99.90
16198;DHT22;8206;51.440;6.914;2022-07-10T02:45:36;13.70;99.90
16198;DHT22;8206;51.440;6.914;2022-07-10T02:48:03;13.70;99.90
16198;DHT22;8206;51.440;6.914;2022-07-10T02:50:30;13.60;99.90
16198;DHT22;8206;51.440;6.914;2022-07-10T02:52:57;13.50;99.90
16198;DHT22;8206;51.440;6.914;2022-07-10T02:55:24;13.50;99.90
16198;DHT22;8206;51.440;6.914;2022-07-10T02:57:51;13.40;99.90
16198;DHT22;8206;51.440;6.914;2022-07-10T03:00:17;13.50;99.90
16198;DHT22;8206;51.440;6.914;2022-07-10T03:02:46;13.50;99.90
16198;DHT22;8206;51.440;6.914;2022-07-10T03:05:12;13.50;99.90
16198;DHT22;8206;51.440;6.914;2022-07-10T03:07:39;13.50;99.90
16198;DHT22;8206;51.440;6.914;2022-07-10T03:10:07;13.40;99.90
16198;DHT22;8206;51.440;6.914;2022-07-10T03:12:33;13.30;99.90
16198;DHT22;8206;51.440;6.914;2022-07-10T03:15:00;13.30;99.90
16198;DHT22;8206;51.440;6.914;2022-07-10T03:17:28;13.20;99.90
16198;DHT22;8206;51.440;6.914;2022-07-10T03:19:56;13.10;99.90
16198;DHT22;8206;51.440;6.914;2022-07-10T03:22:22;13.10;99.90
16198;DHT22;8206;51.440;6.914;2022-07-10T03:24:49;13.10;99.90
16198;DHT22;8206;51.440;6.914;2022-07-10T03:27:16;13.00;99.90
16198;DHT22;8206;51.440;6.914;2022-07-10T03:29:43;13.00;1.00
16198;DHT22;8206;51.440;6.914;2022-07-10T03:32:10;13.00;1.00
16198;DHT22;8206;51.440;6.914;2022-07-10T03:34:36;12.90;1.00
16198;DHT22;8206;51.440;6.914;2022-07-10T03:37:05;12.90;1.00
16198;DHT22;8206;51.440;6.914;2022-07-10T03:39:32;13.00;1.00
16198;DHT22;8206;51.440;6.914;2022-07-10T03:41:59;12.90;1.00
16198;DHT22;8206;51.440;6.914;2022-07-10T03:44:25;12.90;1.00
16198;DHT22;8206;51.440;6.914;2022-07-10T03:46:52;12.90;1.00
16198;DHT22;8206;51.440;6.914;2022-07-10T03:49:19;13.00;1.00
16198;DHT22;8206;51.440;6.914;2022-07-10T03:51:46;13.00;1.00
16198;DHT22;8206;51.440;6.914;2022-07-10T03:54:14;13.00;1.00
16198;DHT22;8206;51.440;6.914;2022-07-10T03:56:41;13.00;1.00
16198;DHT22;8206;51.440;6.914;2022-07-10T03:59:25;13.10;1.00
16198;DHT22;8206;51.440;6.914;2022-07-10T04:01:53;13.20;1.00
16198;DHT22;8206;51.440;6.914;2022-07-10T04:04:20;13.10;1.00
16198;DHT22;8206;51.440;6.914;2022-07-10T04:06:47;13.10;1.00
16198;DHT22;8206;51.440;6.914;2022-07-10T04:09:15;13.20;1.00
16198;DHT22;8206;51.440;6.914;2022-07-10T04:11:42;13.20;1.00
16198;DHT22;8206;51.440;6.914;2022-07-10T04:14:09;13.30;1.00
16198;DHT22;8206;51.440;6.914;2022-07-10T04:16:35;13.40;1.00
16198;DHT22;8206;51.440;6.914;2022-07-10T04:19:02;13.60;1.00
16198;DHT22;8206;51.440;6.914;2022-07-10T04:21:29;13.60;1.00
16198;DHT22;8206;51.440;6.914;2022-07-10T04:23:56;13.60;1.00
16198;DHT22;8206;51.440;6.914;2022-07-10T04:26:24;13.60;1.00
16198;DHT22;8206;51.440;6.914;2022-07-10T04:28:51;13.60;1.00
16198;DHT22;8206;51.440;6.914;2022-07-10T04:31:18;13.70;1.00
16198;DHT22;8206;51.440;6.914;2022-07-10T04:33:45;14.40;1.00
16198;DHT22;8206;51.440;6.914;2022-07-10T04:36:11;15.00;99.90
16198;DHT22;8206;51.440;6.914;2022-07-10T04:38:38;16.00;99.90
16198;DHT22;8206;51.440;6.914;2022-07-10T04:41:05;17.40;99.90
16198;DHT22;8206;51.440;6.914;2022-07-10T04:43:33;18.70;99.90
16198;DHT22;8206;51.440;6.914;2022-07-10T04:46:00;19.60;99.90
16198;DHT22;8206;51.440;6.914;2022-07-10T04:48:27;20.20;99.90
16198;DHT22;8206;51.440;6.914;2022-07-10T04:50:54;20.50;99.90
16198;DHT22;8206;51.440;6.914;2022-07-10T04:53:21;20.80;99.90
16198;DHT22;8206;51.440;6.914;2022-07-10T04:55:47;21.50;99.90
16198;DHT22;8206;51.440;6.914;2022-07-10T04:58:14;22.00;99.90
16198;DHT22;8206;51.440;6.914;2022-07-10T05:00:43;22.20;99.90
16198;DHT22;8206;51.440;6.914;2022-07-10T05:03:09;22.50;99.90
16198;DHT22;8206;51.440;6.914;2022-07-10T05:05:36;22.60;99.90
16198;DHT22;8206;51.440;6.914;2022-07-10T05:08:04;23.10;99.90
16198;DHT22;8206;51.440;6.914;2022-07-10T05:10:30;23.20;99.90
16198;DHT22;8206;51.440;6.914;2022-07-10T05:12:57;22.50;99.90
16198;DHT22;8206;51.440;6.914;2022-07-10T05:15:24;22.30;99.90
16198;DHT22;8206;51.440;6.914;2022-07-10T05:17:52;22.10;99.90
16198;DHT22;8206;51.440;6.914;2022-07-10T05:20:19;21.80;99.90
16198;DHT22;8206;51.440;6.914;2022-07-10T05:22:46;22.00;99.90
16198;DHT22;8206;51.440;6.914;2022-07-10T05:25:12;23.10;99.90
16198;DHT22;8206;51.440;6.914;2022-07-10T05:27:39;23.00;99.90
16198;DHT22;8206;51.440;6.914;2022-07-10T05:32:34;20.90;99.90
16198;DHT22;8206;51.440;6.914;2022-07-10T05:35:09;19.90;99.90
16198;DHT22;8206;51.440;6.914;2022-07-10T05:37:36;19.00;99.90
16198;DHT22;8206;51.440;6.914;2022-07-10T05:40:04;18.90;99.90
16198;DHT22;8206;51.440;6.914;2022-07-10T05:42:31;20.30;99.90
16198;DHT22;8206;51.440;6.914;2022-07-10T05:44:58;21.70;99.90
16198;DHT22;8206;51.440;6.914;2022-07-10T05:47:25;21.30;99.90
16198;DHT22;8206;51.440;6.914;2022-07-10T05:49:52;20.80;99.90
16198;DHT22;8206;51.440;6.914;2022-07-10T05:52:20;20.40;99.90
16198;DHT22;8206;51.440;6.914;2022-07-10T05:54:47;19.30;99.90
16198;DHT22;8206;51.440;6.914;2022-07-10T05:57:14;18.30;99.90
16198;DHT22;8206;51.440;6.914;2022-07-10T05:59:40;17.90;99.90
16198;DHT22;8206;51.440;6.914;2022-07-10T06:02:07;17.40;99.90
16198;DHT22;8206;51.440;6.914;2022-07-10T06:04:34;16.90;99.90
16198;DHT22;8206;51.440;6.914;2022-07-10T06:07:01;16.50;99.90
16198;DHT22;8206;51.440;6.914;2022-07-10T06:09:30;16.00;99.90
16198;DHT22;8206;51.440;6.914;2022-07-10T06:11:56;15.80;99.90
16198;DHT22;8206;51.440;6.914;2022-07-10T06:14:23;15.60;99.90
16198;DHT22;8206;51.440;6.914;2022-07-10T06:16:50;15.50;99.90
16198;DHT22;8206;51.440;6.914;2022-07-10T06:19:17;15.60;99.90
16198;DHT22;8206;51.440;6.914;2022-07-10T06:21:44;15.70;99.90
16198;DHT22;8206;51.440;6.914;2022-07-10T06:24:11;15.70;99.90
16198;DHT22;8206;51.440;6.914;2022-07-10T06:26:39;15.70;99.90
16198;DHT22;8206;51.440;6.914;2022-07-10T06:29:06;15.60;99.90
16198;DHT22;8206;51.440;6.914;2022-07-10T06:31:32;15.70;99.90
16198;DHT22;8206;51.440;6.914;2022-07-10T06:33:59;15.70;99.90
16198;DHT22;8206;51.440;6.914;2022-07-10T06:36:26;15.70;99.90
16198;DHT22;8206;51.440;6.914;2022-07-10T06:38:53;15.60;99.90
16198;DHT22;8206;51.440;6.914;2022-07-10T06:41:19;15.70;99.90
16198;DHT22;8206;51.440;6.914;2022-07-10T06:43:48;15.70;99.90
16198;DHT22;8206;51.440;6.914;2022-07-10T06:46:15;15.70;99.90
16198;DHT22;8206;51.440;6.914;2022-07-10T06:48:41;15.70;99.90
16198;DHT22;8206;51.440;6.914;2022-07-10T06:51:08;15.90;99.90
16198;DHT22;8206;51.440;6.914;2022-07-10T06:53:35;15.80;99.90
16198;DHT22;8206;51.440;6.914;2022-07-10T06:56:03;15.90;99.90
16198;DHT22;8206;51.440;6.914;2022-07-10T06:58:30;15.90;99.90
16198;DHT22;8206;51.440;6.914;2022-07-10T07:00:58;16.00;99.90
16198;DHT22;8206;51.440;6.914;2022-07-10T07:03:25;16.00;99.90
16198;DHT22;8206;51.440;6.914;2022-07-10T07:05:52;16.00;99.90
16198;DHT22;8206;51.440;6.914;2022-07-10T07:08:18;16.00;99.90
16198;DHT22;8206;51.440;6.914;2022-07-10T07:10:46;16.00;99.90
16198;DHT22;8206;51.440;6.914;2022-07-10T07:13:13;16.10;99.90
16198;DHT22;8206;51.440;6.914;2022-07-10T07:15:40;16.10;99.90
16198;DHT22;8206;51.440;6.914;2022-07-10T07:18:13;16.10;99.90
16198;DHT22;8206;51.440;6.914;2022-07-10T07:20:41;16.20;99.90
16198;DHT22;8206;51.440;6.914;2022-07-10T07:23:26;16.30;99.90
16198;DHT22;8206;51.440;6.914;2022-07-10T07:25:53;16.40;99.90
16198;DHT22;8206;51.440;6.914;2022-07-10T07:28:21;16.30;99.90
16198;DHT22;8206;51.440;6.914;2022-07-10T07:30:48;16.20;99.90
16198;DHT22;8206;51.440;6.914;2022-07-10T07:33:16;15.90;99.90
16198;DHT22;8206;51.440;6.914;2022-07-10T07:35:44;15.70;99.90
16198;DHT22;8206;51.440;6.914;2022-07-10T07:38:11;15.70;99.90
16198;DHT22;8206;51.440;6.914;2022-07-10T07:40:38;15.80;99.90
16198;DHT22;8206;51.440;6.914;2022-07-10T07:43:04;15.70;99.90
16198;DHT22;8206;51.440;6.914;2022-07-10T07:45:31;15.90;99.90
16198;DHT22;8206;51.440;6.914;2022-07-10T07:47:59;15.90;99.90
16198;DHT22;8206;51.440;6.914;2022-07-10T07:50:29;16.20;99.90
16198;DHT22;8206;51.440;6.914;2022-07-10T07:52:57;16.40;99.90
16198;DHT22;8206;51.440;6.914;2022-07-10T07:55:24;16.40;99.90
16198;DHT22;8206;51.440;6.914;2022-07-10T07:57:52;16.50;99.90
16198;DHT22;8206;51.440;6.914;2022-07-10T08:00:20;16.40;99.90
16198;DHT22;8206;51.440;6.914;2022-07-10T08:02:48;16.10;99.90
16198;DHT22;8206;51.440;6.914;2022-07-10T08:05:16;15.90;99.90
16198;DHT22;8206;51.440;6.914;2022-07-10T08:07:46;15.90;99.90
16198;DHT22;8206;51.440;6.914;2022-07-10T08:10:14;16.00;99.90
16198;DHT22;8206;51.440;6.914;2022-07-10T08:12:42;16.10;99.90
16198;DHT22;8206;51.440;6.914;2022-07-10T08:15:11;16.00;99.90
16198;DHT22;8206;51.440;6.914;2022-07-10T08:17:38;16.00;99.90
16198;DHT22;8206;51.440;6.914;2022-07-10T08:20:07;16.00;99.90
16198;DHT22;8206;51.440;6.914;2022-07-10T08:22:35;15.90;99.90
16198;DHT22;8206;51.440;6.914;2022-07-10T08:25:03;15.80;1.00
16198;DHT22;8206;51.440;6.914;2022-07-10T08:27:30;15.90;1.00
16198;DHT22;8206;51.440;6.914;2022-07-10T08:29:57;16.00;1.00
16198;DHT22;8206;51.440;6.914;2022-07-10T08:32:24;15.90;99.90
16198;DHT22;8206;51.440;6.914;2022-07-10T08:34:51;16.00;1.00
16198;DHT22;8206;51.440;6.914;2022-07-10T08:37:18;16.00;99.90
16198;DHT22;8206;51.440;6.914;2022-07-10T08:39:46;16.10;1.00
16198;DHT22;8206;51.440;6.914;2022-07-10T08:42:15;16.40;99.90
16198;DHT22;8206;51.440;6.914;2022-07-10T08:44:43;16.60;99.90
16198;DHT22;8206;51.440;6.914;2022-07-10T08:47:09;16.90;99.90
16198;DHT22;8206;51.440;6.914;2022-07-10T08:49:38;17.10;99.90
16198;DHT22;8206;51.440;6.914;2022-07-10T08:52:08;17.30;99.90
16198;DHT22;8206;51.440;6.914;2022-07-10T08:54:37;17.70;99.90
16198;DHT22;8206;51.440;6.914;2022-07-10T08:57:04;18.10;99.90
16198;DHT22;8206;51.440;6.914;2022-07-10T08:59:33;18.50;99.90
16198;DHT22;8206;51.440;6.914;2022-07-10T09:01:59;18.80;99.90
16198;DHT22;8206;51.440;6.914;2022-07-10T09:04:27;18.70;99.90
16198;DHT22;8206;51.440;6.914;2022-07-10T09:06:54;18.80;99.90
16198;DHT22;8206;51.440;6.914;2022-07-10T09:09:21;18.80;99.90
16198;DHT22;8206;51.440;6.914;2022-07-10T09:11:55;18.50;99.90
16198;DHT22;8206;51.440;6.914;2022-07-10T09:14:22;18.50;99.90
16198;DHT22;8206;51.440;6.914;2022-07-10T09:16:52;18.70;99.90
16198;DHT22;8206;51.440;6.914;2022-07-10T09:19:21;19.00;99.90
16198;DHT22;8206;51.440;6.914;2022-07-10T09:21:49;19.20;99.90
16198;DHT22;8206;51.440;6.914;2022-07-10T09:24:17;19.20;99.90
16198;DHT22;8206;51.440;6.914;2022-07-10T09:26:58;18.90;99.90
16198;DHT22;8206;51.440;6.914;2022-07-10T09:29:25;18.40;99.90
16198;DHT22;8206;51.440;6.914;2022-07-10T09:31:54;18.00;99.90
16198;DHT22;8206;51.440;6.914;2022-07-10T09:34:35;17.60;99.90
16198;DHT22;8206;51.440;6.914;2022-07-10T09:37:19;17.30;99.90
16198;DHT22;8206;51.440;6.914;2022-07-10T09:39:53;17.20;99.90
16198;DHT22;8206;51.440;6.914;2022-07-10T09:42:28;17.30;99.90
16198;DHT22;8206;51.440;6.914;2022-07-10T09:45:15;17.70;99.90
16198;DHT22;8206;51.440;6.914;2022-07-10T09:47:45;18.00;99.90
16198;DHT22;8206;51.440;6.914;2022-07-10T09:50:21;18.00;99.90
16198;DHT22;8206;51.440;6.914;2022-07-10T09:52:50;17.80;99.90
16198;DHT22;8206;51.440;6.914;2022-07-10T09:55:19;17.60;99.90
16198;DHT22;8206;51.440;6.914;2022-07-10T09:57:52;17.20;99.90
16198;DHT22;8206;51.440;6.914;2022-07-10T10:00:22;17.10;99.90
16198;DHT22;8206;51.440;6.914;2022-07-10T10:02:54;17.10;99.90
16198;DHT22;8206;51.440;6.914;2022-07-10T10:05:35;17.20;99.90
16198;DHT22;8206;51.440;6.914;2022-07-10T10:08:07;17.30;99.90
16198;DHT22;8206;51.440;6.914;2022-07-10T10:10:36;17.60;99.90
16198;DHT22;8206;51.440;6.914;2022-07-10T10:13:07;17.90;99.90
16198;DHT22;8206;51.440;6.914;2022-07-10T10:15:36;18.40;99.90
16198;DHT22;8206;51.440;6.914;2022-07-10T10:18:05;19.00;99.90
16198;DHT22;8206;51.440;6.914;2022-07-10T10:20:33;19.40;99.90
16198;DHT22;8206;51.440;6.914;2022-07-10T10:23:09;19.40;99.90
16198;DHT22;8206;51.440;6.914;2022-07-10T10:25:37;19.10;99.90
16198;DHT22;8206;51.440;6.914;2022-07-10T10:28:07;18.70;99.90
16198;DHT22;8206;51.440;6.914;2022-07-10T10:30:37;18.30;99.90
16198;DHT22;8206;51.440;6.914;2022-07-10T10:33:43;18.00;99.90
16198;DHT22;8206;51.440;6.914;2022-07-10T10:36:14;17.60;99.90
16198;DHT22;8206;51.440;6.914;2022-07-10T10:39:03;17.30;99.90
16198;DHT22;8206;51.440;6.914;2022-07-10T10:41:37;17.20;99.90
16198;DHT22;8206;51.440;6.914;2022-07-10T10:44:26;17.20;1.00
16198;DHT22;8206;51.440;6.914;2022-07-10T10:47:00;17.20;1.00
16198;DHT22;8206;51.440;6.914;2022-07-10T10:49:53;17.10;1.00
16198;DHT22;8206;51.440;6.914;2022-07-10T10:52:22;17.50;1.00
16198;DHT22;8206;51.440;6.914;2022-07-10T10:55:04;18.20;1.00
16198;DHT22;8206;51.440;6.914;2022-07-10T10:57:50;19.10;99.90
16198;DHT22;8206;51.440;6.914;2022-07-10T11:00:31;19.80;99.90
16198;DHT22;8206;51.440;6.914;2022-07-10T11:03:17;19.60;99.90
16198;DHT22;8206;51.440;6.914;2022-07-10T11:05:47;19.40;99.90
16198;DHT22;8206;51.440;6.914;2022-07-10T11:08:35;19.20;99.90
16198;DHT22;8206;51.440;6.914;2022-07-10T11:11:37;19.00;99.90
16198;DHT22;8206;51.440;6.914;2022-07-10T11:14:05;18.60;99.90
16198;DHT22;8206;51.440;6.914;2022-07-10T11:16:33;18.10;99.90
16198;DHT22;8206;51.440;6.914;2022-07-10T11:19:01;17.90;1.00
16198;DHT22;8206;51.440;6.914;2022-07-10T11:21:38;17.90;1.00
16198;DHT22;8206;51.440;6.914;2022-07-10T11:24:20;18.30;1.00
16198;DHT22;8206;51.440;6.914;2022-07-10T11:26:55;18.70;99.90
16198;DHT22;8206;51.440;6.914;2022-07-10T11:29:25;19.30;99.90
16198;DHT22;8206;51.440;6.914;2022-07-10T11:31:53;19.70;99.90
16198;DHT22;8206;51.440;6.914;2022-07-10T11:34:20;19.80;99.90
16198;DHT22;8206;51.440;6.914;2022-07-10T11:36:49;19.80;99.90
16198;DHT22;8206;51.440;6.914;2022-07-10T11:39:16;19.70;99.90
16198;DHT22;8206;51.440;6.914;2022-07-10T11:41:43;19.70;99.90
16198;DHT22;8206;51.440;6.914;2022-07-10T11:44:13;19.40;99.90
16198;DHT22;8206;51.440;6.914;2022-07-10T11:46:41;19.00;99.90
16198;DHT22;8206;51.440;6.914;2022-07-10T11:49:10;18.90;99.90
16198;DHT22;8206;51.440;6.914;2022-07-10T11:51:38;19.20;99.90
16198;DHT22;8206;51.440;6.914;2022-07-10T11:54:08;19.90;99.90
16198;DHT22;8206;51.440;6.914;2022-07-10T11:56:37;19.80;99.90
16198;DHT22;8206;51.440;6.914;2022-07-10T11:59:07;19.40;99.90
16198;DHT22;8206;51.440;6.914;2022-07-10T12:01:35;18.70;99.90
16198;DHT22;8206;51.440;6.914;2022-07-10T12:04:07;18.60;99.90
16198;DHT22;8206;51.440;6.914;2022-07-10T12:06:37;18.70;99.90
16198;DHT22;8206;51.440;6.914;2022-07-10T12:09:07;19.00;1.00
16198;DHT22;8206;51.440;6.914;2022-07-10T12:11:34;19.30;99.90
16198;DHT22;8206;51.440;6.914;2022-07-10T12:14:12;19.80;99.90
16198;DHT22;8206;51.440;6.914;2022-07-10T12:16:41;19.90;99.90
16198;DHT22;8206;51.440;6.914;2022-07-10T12:19:11;20.00;99.90
16198;DHT22;8206;51.440;6.914;2022-07-10T12:21:38;19.60;99.90
16198;DHT22;8206;51.440;6.914;2022-07-10T12:24:07;18.90;99.90
16198;DHT22;8206;51.440;6.914;2022-07-10T12:26:35;18.70;99.90
16198;DHT22;8206;51.440;6.914;2022-07-10T12:29:04;18.60;99.90
16198;DHT22;8206;51.440;6.914;2022-07-10T12:31:32;18.70;1.00
16198;DHT22;8206;51.440;6.914;2022-07-10T12:34:00;18.80;99.90
16198;DHT22;8206;51.440;6.914;2022-07-10T12:36:44;19.00;99.90
16198;DHT22;8206;51.440;6.914;2022-07-10T12:39:14;19.40;99.90
16198;DHT22;8206;51.440;6.914;2022-07-10T12:42:00;19.80;99.90
16198;DHT22;8206;51.440;6.914;2022-07-10T12:44:36;20.20;99.90
16198;DHT22;8206;51.440;6.914;2022-07-10T12:47:04;20.30;99.90
16198;DHT22;8206;51.440;6.914;2022-07-10T12:49:51;20.20;99.90
16198;DHT22;8206;51.440;6.914;2022-07-10T12:52:23;20.10;99.90
16198;DHT22;8206;51.440;6.914;2022-07-10T12:55:05;20.50;99.90
16198;DHT22;8206;51.440;6.914;2022-07-10T12:57:33;20.80;99.90
16198;DHT22;8206;51.440;6.914;2022-07-10T13:00:04;20.90;99.90
16198;DHT22;8206;51.440;6.914;2022-07-10T13:02:32;20.90;99.90
16198;DHT22;8206;51.440;6.914;2022-07-10T13:04:59;21.00;99.90
16198;DHT22;8206;51.440;6.914;2022-07-10T13:07:29;21.00;99.90
16198;DHT22;8206;51.440;6.914;2022-07-10T13:09:58;20.90;99.90
16198;DHT22;8206;51.440;6.914;2022-07-10T13:12:26;20.80;99.90
16198;DHT22;8206;51.440;6.914;2022-07-10T13:14:52;20.80;99.90
16198;DHT22;8206;51.440;6.914;2022-07-10T13:17:19;21.10;99.90
16198;DHT22;8206;51.440;6.914;2022-07-10T13:19:46;21.20;99.90
16198;DHT22;8206;51.440;6.914;2022-07-10T13:22:13;21.60;99.90
16198;DHT22;8206;51.440;6.914;2022-07-10T13:24:39;22.00;99.90
16198;DHT22;8206;51.440;6.914;2022-07-10T13:27:08;22.20;99.90
16198;DHT22;8206;51.440;6.914;2022-07-10T13:29:35;22.10;99.90
16198;DHT22;8206;51.440;6.914;2022-07-10T13:32:02;21.80;99.90
16198;DHT22;8206;51.440;6.914;2022-07-10T13:34:29;21.60;99.90
16198;DHT22;8206;51.440;6.914;2022-07-10T13:36:56;21.20;99.90
16198;DHT22;8206;51.440;6.914;2022-07-10T13:39:24;20.80;99.90
16198;DHT22;8206;51.440;6.914;2022-07-10T13:41:51;20.40;99.90
16198;DHT22;8206;51.440;6.914;2022-07-10T13:44:19;20.10;99.90
16198;DHT22;8206;51.440;6.914;2022-07-10T13:46:46;19.90;99.90
16198;DHT22;8206;51.440;6.914;2022-07-10T13:49:12;20.00;99.90
16198;DHT22;8206;51.440;6.914;2022-07-10T13:51:39;20.00;99.90
16198;DHT22;8206;51.440;6.914;2022-07-10T13:54:06;20.10;99.90
16198;DHT22;8206;51.440;6.914;2022-07-10T13:56:33;20.10;99.90
16198;DHT22;8206;51.440;6.914;2022-07-10T13:59:00;20.10;99.90
16198;DHT22;8206;51.440;6.914;2022-07-10T14:01:28;19.90;99.90
16198;DHT22;8206;51.440;6.914;2022-07-10T14:03:55;19.80;99.90
16198;DHT22;8206;51.440;6.914;2022-07-10T14:06:21;19.70;99.90
16198;DHT22;8206;51.440;6.914;2022-07-10T14:08:48;19.70;99.90
16198;DHT22;8206;51.440;6.914;2022-07-10T14:11:15;19.60;99.90
16198;DHT22;8206;51.440;6.914;2022-07-10T14:13:43;19.60;99.90
16198;DHT22;8206;51.440;6.914;2022-07-10T14:16:10;19.50;99.90
16198;DHT22;8206;51.440;6.914;2022-07-10T14:18:38;19.40;99.90
16198;DHT22;8206;51.440;6.914;2022-07-10T14:21:07;19.30;99.90
16198;DHT22;8206;51.440;6.914;2022-07-10T14:23:36;19.30;99.90
16198;DHT22;8206;51.440;6.914;2022-07-10T14:26:04;19.30;99.90
16198;DHT22;8206;51.440;6.914;2022-07-10T14:28:31;19.30;99.90
16198;DHT22;8206;51.440;6.914;2022-07-10T14:31:00;19.40;99.90
16198;DHT22;8206;51.440;6.914;2022-07-10T14:33:29;19.60;99.90
16198;DHT22;8206;51.440;6.914;2022-07-10T14:35:58;19.90;99.90
16198;DHT22;8206;51.440;6.914;2022-07-10T14:38:26;20.40;99.90
16198;DHT22;8206;51.440;6.914;2022-07-10T14:40:54;21.10;99.90
16198;DHT22;8206;51.440;6.914;2022-07-10T14:43:21;21.10;99.90
16198;DHT22;8206;51.440;6.914;2022-07-10T14:45:49;21.20;99.90
16198;DHT22;8206;51.440;6.914;2022-07-10T14:48:16;21.10;99.90
16198;DHT22;8206;51.440;6.914;2022-07-10T14:50:43;20.80;99.90
16198;DHT22;8206;51.440;6.914;2022-07-10T14:53:12;20.60;99.90
16198;DHT22;8206;51.440;6.914;2022-07-10T14:55:39;20.30;99.90
16198;DHT22;8206;51.440;6.914;2022-07-10T14:58:06;20.00;99.90
16198;DHT22;8206;51.440;6.914;2022-07-10T15:00:33;20.10;99.90
16198;DHT22;8206;51.440;6.914;2022-07-10T15:03:00;20.30;99.90
16198;DHT22;8206;51.440;6.914;2022-07-10T15:05:27;20.60;99.90
16198;DHT22;8206;51.440;6.914;2022-07-10T15:07:54;20.70;99.90
16198;DHT22;8206;51.440;6.914;2022-07-10T15:10:22;21.00;99.90
16198;DHT22;8206;51.440;6.914;2022-07-10T15:12:48;21.10;99.90
16198;DHT22;8206;51.440;6.914;2022-07-10T15:15:15;21.20;99.90
16198;DHT22;8206;51.440;6.914;2022-07-10T15:17:42;21.30;99.90
16198;DHT22;8206;51.440;6.914;2022-07-10T15:20:11;21.40;99.90
16198;DHT22;8206;51.440;6.914;2022-07-10T15:22:38;21.40;99.90
16198;DHT22;8206;51.440;6.914;2022-07-10T15:25:05;21.20;99.90
16198;DHT22;8206;51.440;6.914;2022-07-10T15:27:34;21.10;99.90
16198;DHT22;8206;51.440;6.914;2022-07-10T15:30:00;21.10;99.90
16198;DHT22;8206;51.440;6.914;2022-07-10T15:32:27;21.10;99.90
16198;DHT22;8206;51.440;6.914;2022-07-10T15:34:54;21.00;99.90
16198;DHT22;8206;51.440;6.914;2022-07-10T15:37:21;21.10;99.90
16198;DHT22;8206;51.440;6.914;2022-07-10T15:39:48;21.10;99.90
16198;DHT22;8206;51.440;6.914;2022-07-10T15:42:15;21.00;99.90
16198;DHT22;8206;51.440;6.914;2022-07-10T15:44:43;21.00;99.90
16198;DHT22;8206;51.440;6.914;2022-07-10T15:47:10;21.10;99.90
16198;DHT22;8206;51.440;6.914;2022-07-10T15:49:38;21.20;99.90
16198;DHT22;8206;51.440;6.914;2022-07-10T15:52:05;21.20;99.90
16198;DHT22;8206;51.440;6.914;2022-07-10T15:54:32;21.00;99.90
16198;DHT22;8206;51.440;6.914;2022-07-10T15:56:59;20.80;99.90
16198;DHT22;8206;51.440;6.914;2022-07-10T15:59:27;20.80;99.90